createdAt,value
2022-07-29T00:02:26.129Z,23.85
2022-07-29T00:04:53.001Z,23.93
2022-07-29T00:07:19.710Z,23.74
2022-07-29T00:09:51.951Z,23.92
2022-07-29T00:12:25.480Z,24.01
2022-07-29T00:14:56.625Z,23.91
2022-07-29T00:17:24.622Z,23.53
2022-07-29T00:19:51.432Z,23.96
2022-07-29T00:22:18.012Z,23.46
2022-07-29T00:24:44.555Z,23.70
2022-07-29T00:27:11.031Z,23.60
2022-07-29T00:29:37.604Z,23.69
2022-07-29T00:32:04.441Z,23.85
2022-07-29T00:34:50.196Z,24.00
2022-07-29T00:37:17.154Z,23.87
2022-07-29T00:39:43.768Z,23.66
2022-07-29T00:42:10.811Z,23.84
2022-07-29T00:44:41.815Z,23.96
2022-07-29T00:47:09.318Z,23.83
2022-07-29T00:49:36.336Z,23.41
2022-07-29T00:52:04.208Z,23.73
2022-07-29T00:54:31.174Z,23.64
2022-07-29T00:56:59.748Z,23.25
2022-07-29T00:59:34.687Z,23.28
2022-07-29T01:02:03.214Z,23.04
2022-07-29T01:04:30.707Z,23.40
2022-07-29T01:06:57.443Z,22.98
2022-07-29T01:09:43.219Z,23.29
2022-07-29T01:12:11.644Z,22.89
2022-07-29T01:14:38.597Z,22.61
2022-07-29T01:17:13.974Z,22.64
2022-07-29T01:20:08.299Z,22.67
2022-07-29T01:22:34.841Z,22.54
2022-07-29T01:25:26.061Z,22.75
2022-07-29T01:28:00.957Z,22.68
2022-07-29T01:30:28.277Z,22.76
2022-07-29T01:33:01.692Z,22.72
2022-07-29T01:35:35.184Z,22.44
2022-07-29T01:38:08.157Z,22.82
2022-07-29T01:40:36.869Z,22.43
2022-07-29T01:43:10.553Z,22.46
2022-07-29T01:45:43.077Z,22.22
2022-07-29T01:48:24.717Z,22.25
2022-07-29T01:51:17.352Z,22.75
2022-07-29T01:53:49.106Z,22.63
2022-07-29T01:56:17.887Z,22.81
2022-07-29T01:58:44.926Z,22.90
2022-07-29T02:01:12.633Z,22.78
2022-07-29T02:03:40.191Z,23.10
2022-07-29T02:06:08.047Z,22.73
2022-07-29T02:08:34.971Z,22.89
2022-07-29T02:11:03.323Z,22.82
2022-07-29T02:13:30.973Z,22.89
2022-07-29T02:15:58.458Z,22.65
2022-07-29T02:18:26.587Z,22.62
2022-07-29T02:20:54.906Z,22.70
2022-07-29T02:23:24.049Z,22.62
2022-07-29T02:25:54.174Z,22.71
2022-07-29T02:28:22.258Z,22.33
2022-07-29T02:30:50.379Z,22.40
2022-07-29T02:33:17.541Z,22.44
2022-07-29T02:35:45.033Z,22.82
2022-07-29T02:38:33.342Z,22.84
2022-07-29T02:41:01.491Z,22.80
2022-07-29T02:43:29.070Z,22.96
2022-07-29T02:45:56.040Z,22.98
2022-07-29T02:48:35.905Z,22.77
2022-07-29T02:51:07.783Z,22.93
2022-07-29T02:53:35.697Z,22.57
2022-07-29T02:56:14.597Z,22.65
2022-07-29T02:58:49.846Z,22.45
2022-07-29T03:01:25.346Z,22.56
2022-07-29T03:03:54.295Z,22.57
2022-07-29T03:06:37.398Z,22.43
2022-07-29T03:09:12.029Z,22.58
2022-07-29T03:11:46.091Z,22.61
2022-07-29T03:14:21.439Z,22.63
2022-07-29T03:16:48.829Z,22.24
2022-07-29T03:19:15.680Z,22.16
2022-07-29T03:21:42.435Z,22.46
2022-07-29T03:24:10.800Z,22.47
2022-07-29T03:26:38.068Z,22.11
2022-07-29T03:29:04.704Z,22.05
2022-07-29T03:31:32.116Z,22.25
2022-07-29T03:34:00.260Z,22.23
2022-07-29T03:36:26.840Z,22.32
2022-07-29T03:38:53.459Z,22.46
2022-07-29T03:41:22.431Z,22.45
2022-07-29T03:43:50.542Z,22.09
2022-07-29T03:46:18.467Z,21.71
2022-07-29T03:48:50.091Z,21.89
2022-07-29T03:51:16.899Z,22.01
2022-07-29T03:53:43.604Z,22.08
2022-07-29T03:56:11.191Z,22.24
2022-07-29T03:58:38.704Z,22.37
2022-07-29T04:01:05.379Z,22.29
2022-07-29T04:03:32.029Z,22.26
2022-07-29T04:06:09.047Z,22.45
2022-07-29T04:08:35.682Z,22.47
2022-07-29T04:11:03.015Z,22.34
2022-07-29T04:13:29.760Z,22.31
2022-07-29T04:15:56.476Z,22.32
2022-07-29T04:18:23.059Z,22.40
2022-07-29T04:20:49.639Z,22.20
2022-07-29T04:23:16.554Z,21.87
2022-07-29T04:25:43.597Z,21.79
2022-07-29T04:28:10.553Z,22.11
2022-07-29T04:30:38.396Z,22.21
2022-07-29T04:33:07.381Z,22.38
2022-07-29T04:35:39.357Z,22.36
2022-07-29T04:38:17.349Z,22.00
2022-07-29T04:40:44.252Z,21.67
2022-07-29T04:43:10.917Z,22.10
2022-07-29T04:45:39.726Z,22.31
2022-07-29T04:48:06.521Z,22.55
2022-07-29T04:50:33.486Z,22.45
2022-07-29T04:53:00.004Z,22.68
2022-07-29T04:55:27.241Z,23.05
2022-07-29T04:57:53.835Z,22.83
2022-07-29T05:00:20.406Z,22.97
2022-07-29T05:02:46.992Z,23.01
2022-07-29T05:05:13.656Z,22.12
2022-07-29T05:07:42.267Z,21.72
2022-07-29T05:10:10.351Z,21.00
2022-07-29T05:12:36.981Z,20.99
2022-07-29T05:15:03.946Z,20.95
2022-07-29T05:17:30.540Z,21.10
2022-07-29T05:19:57.106Z,20.06
2022-07-29T05:22:24.185Z,19.49
2022-07-29T05:24:50.723Z,19.86
2022-07-29T05:27:17.611Z,19.49
2022-07-29T05:29:45.834Z,20.15
2022-07-29T05:32:13.664Z,20.24
2022-07-29T05:34:50.149Z,20.75
2022-07-29T05:37:18.947Z,20.58
2022-07-29T05:39:48.918Z,20.20
2022-07-29T05:42:17.363Z,20.33
2022-07-29T05:44:43.915Z,20.56
2022-07-29T05:47:10.548Z,20.45
2022-07-29T05:49:37.224Z,21.31
2022-07-29T05:52:04.299Z,21.41
2022-07-29T05:54:30.861Z,21.40
2022-07-29T05:56:57.429Z,21.83
2022-07-29T05:59:28.308Z,21.72
2022-07-29T06:01:58.112Z,21.68
2022-07-29T06:04:25.025Z,22.04
2022-07-29T06:06:51.836Z,22.07
2022-07-29T06:09:18.413Z,21.80
2022-07-29T06:11:44.959Z,22.00
2022-07-29T06:14:11.518Z,22.72
2022-07-29T06:16:38.133Z,23.04
2022-07-29T06:19:05.400Z,22.91
2022-07-29T06:21:31.973Z,22.43
2022-07-29T06:23:58.680Z,22.69
2022-07-29T06:26:31.472Z,22.88
2022-07-29T06:28:59.620Z,23.09
2022-07-29T06:31:26.287Z,21.95
2022-07-29T06:33:54.599Z,22.08
2022-07-29T06:38:51.318Z,23.59
2022-07-29T06:41:18.975Z,23.71
2022-07-29T06:43:51.030Z,23.24
2022-07-29T06:46:22.408Z,24.07
2022-07-29T06:48:49.749Z,24.56
2022-07-29T06:51:17.356Z,24.89
2022-07-29T06:53:58.323Z,24.71
2022-07-29T06:56:28.873Z,25.09
2022-07-29T06:58:55.416Z,24.47
2022-07-29T07:01:22.144Z,25.38
2022-07-29T07:03:49.261Z,24.92
2022-07-29T07:06:15.892Z,24.12
2022-07-29T07:08:42.422Z,23.89
2022-07-29T07:11:09.707Z,24.20
2022-07-29T07:13:36.775Z,24.83
2022-07-29T07:16:03.924Z,25.10
2022-07-29T07:18:30.727Z,25.43
2022-07-29T07:20:57.922Z,25.71
2022-07-29T07:23:24.902Z,25.96
2022-07-29T07:25:52.131Z,26.05
2022-07-29T07:28:18.850Z,25.87
2022-07-29T07:30:51.314Z,26.70
2022-07-29T07:33:17.871Z,27.03
2022-07-29T07:35:45.261Z,27.29
2022-07-29T07:38:11.859Z,27.93
2022-07-29T07:40:38.436Z,28.68
2022-07-29T07:43:05.140Z,29.15
2022-07-29T07:45:35.070Z,29.28
2022-07-29T07:48:01.814Z,28.51
2022-07-29T07:50:28.456Z,28.50
2022-07-29T07:52:58.819Z,28.88
2022-07-29T07:55:26.591Z,29.08
2022-07-29T07:57:54.024Z,29.05
2022-07-29T08:00:22.793Z,29.59
2022-07-29T08:02:51.018Z,29.30
2022-07-29T08:05:18.232Z,29.53
2022-07-29T08:07:46.399Z,30.32
2022-07-29T08:10:14.673Z,30.83
2022-07-29T08:12:42.668Z,31.01
2022-07-29T08:15:09.753Z,31.17
2022-07-29T08:17:36.350Z,31.36
2022-07-29T08:20:03.933Z,31.42
2022-07-29T08:22:30.561Z,31.58
2022-07-29T08:24:57.191Z,30.58
2022-07-29T08:27:45.226Z,29.77
2022-07-29T08:30:11.333Z,30.06
2022-07-29T08:32:53.289Z,30.73
2022-07-29T08:35:22.352Z,30.90
2022-07-29T08:37:48.965Z,29.88
2022-07-29T08:40:15.819Z,29.78
2022-07-29T08:42:42.409Z,29.48
2022-07-29T08:45:09.373Z,29.29
2022-07-29T08:47:40.352Z,30.59
2022-07-29T08:50:08.671Z,28.02
2022-07-29T08:52:38.166Z,29.65
2022-07-29T08:55:06.495Z,30.92
2022-07-29T08:57:34.361Z,29.63
2022-07-29T09:00:11.321Z,31.65
2022-07-29T09:02:43.198Z,32.65
2022-07-29T09:05:13.402Z,32.40
2022-07-29T09:07:40.156Z,33.46
2022-07-29T09:10:07.407Z,33.78
2022-07-29T09:12:37.962Z,34.99
2022-07-29T09:15:05.150Z,35.84
2022-07-29T09:17:49.224Z,36.55
2022-07-29T09:20:21.275Z,35.95
2022-07-29T09:22:51.774Z,36.44
2022-07-29T09:25:37.884Z,37.46
2022-07-29T09:28:07.810Z,39.07
2022-07-29T09:30:34.940Z,38.20
2022-07-29T09:33:03.888Z,40.81
2022-07-29T09:35:31.786Z,44.57
2022-07-29T09:37:58.331Z,47.79
2022-07-29T09:40:27.734Z,48.93
2022-07-29T09:42:58.122Z,48.42
2022-07-29T09:45:33.297Z,46.76
2022-07-29T09:48:01.310Z,44.71
2022-07-29T09:50:39.638Z,44.39
2022-07-29T09:53:06.581Z,42.87
2022-07-29T09:55:33.247Z,42.24
2022-07-29T09:58:20.491Z,41.68
2022-07-29T10:00:48.565Z,40.16
2022-07-29T10:03:16.667Z,39.57
2022-07-29T10:05:44.184Z,39.97
2022-07-29T10:08:13.287Z,39.61
2022-07-29T10:10:42.471Z,37.30
2022-07-29T10:13:16.492Z,36.31
2022-07-29T10:15:46.021Z,36.23
2022-07-29T10:18:14.287Z,35.00
2022-07-29T10:20:42.073Z,35.80
2022-07-29T10:23:09.892Z,36.33
2022-07-29T10:25:36.503Z,36.47
2022-07-29T10:28:03.760Z,37.61
2022-07-29T10:30:30.661Z,37.82
2022-07-29T10:33:18.939Z,38.36
2022-07-29T10:36:03.721Z,37.54
2022-07-29T10:38:50.211Z,36.33
2022-07-29T10:41:43.868Z,34.75
2022-07-29T10:44:19.078Z,31.97
2022-07-29T10:46:46.519Z,31.25
2022-07-29T10:49:15.728Z,31.78
2022-07-29T10:51:51.570Z,30.34
2022-07-29T10:54:42.441Z,28.56
2022-07-29T10:57:16.705Z,27.97
2022-07-29T10:59:44.734Z,28.82
2022-07-29T11:02:41.147Z,28.31
2022-07-29T11:05:18.730Z,28.09
2022-07-29T11:08:19.678Z,28.01
2022-07-29T11:10:49.060Z,28.17
2022-07-29T11:13:44.060Z,28.45
2022-07-29T11:16:10.633Z,27.95
2022-07-29T11:18:41.930Z,27.33
2022-07-29T11:21:51.666Z,26.65
2022-07-29T11:24:29.621Z,26.69
2022-07-29T11:27:13.178Z,27.27
2022-07-29T11:29:50.230Z,26.30
2022-07-29T11:32:22.812Z,26.45
2022-07-29T11:35:17.061Z,27.30
2022-07-29T11:37:52.802Z,27.44
2022-07-29T11:40:24.506Z,27.25
2022-07-29T11:42:52.592Z,27.58
2022-07-29T11:45:44.361Z,27.73
2022-07-29T11:48:29.643Z,27.64
2022-07-29T11:50:58.697Z,27.60
2022-07-29T11:53:25.870Z,27.15
2022-07-29T11:55:58.370Z,27.58
2022-07-29T11:58:26.225Z,27.78
2022-07-29T12:00:55.622Z,28.06
2022-07-29T12:03:34.977Z,28.42
2022-07-29T12:06:02.237Z,29.01
2022-07-29T12:08:28.776Z,28.37
2022-07-29T12:10:55.360Z,29.40
2022-07-29T12:13:22.339Z,29.71
2022-07-29T12:15:59.709Z,30.13
2022-07-29T12:18:27.825Z,29.71
2022-07-29T12:21:04.637Z,29.59
2022-07-29T12:23:35.645Z,28.75
2022-07-29T12:26:07.220Z,28.47
2022-07-29T12:28:39.270Z,28.52
2022-07-29T12:31:06.165Z,29.24
2022-07-29T12:33:35.875Z,28.69
2022-07-29T12:36:07.680Z,28.72
2022-07-29T12:38:35.865Z,28.72
2022-07-29T12:41:04.421Z,29.07
2022-07-29T12:43:31.441Z,28.57
2022-07-29T12:45:58.512Z,28.03
2022-07-29T12:48:39.137Z,28.37
2022-07-29T12:51:10.043Z,28.42
2022-07-29T12:53:37.552Z,27.41
2022-07-29T12:56:15.541Z,27.56
2022-07-29T12:58:52.660Z,28.02
2022-07-29T13:01:21.019Z,28.23
2022-07-29T13:03:57.652Z,27.90
2022-07-29T13:06:35.716Z,28.21
2022-07-29T13:09:03.892Z,28.12
2022-07-29T13:11:34.208Z,27.68
2022-07-29T13:14:05.897Z,28.22
2022-07-29T13:16:33.957Z,28.06
2022-07-29T13:19:05.581Z,27.78
2022-07-29T13:21:32.123Z,27.86
2022-07-29T13:23:58.670Z,27.50
2022-07-29T13:26:25.193Z,27.21
2022-07-29T13:28:51.754Z,27.44
2022-07-29T13:31:18.306Z,26.30
2022-07-29T13:33:44.932Z,27.27
2022-07-29T13:36:11.483Z,26.83
2022-07-29T13:38:38.308Z,27.14
2022-07-29T13:41:04.938Z,27.26
2022-07-29T13:43:32.157Z,27.37
2022-07-29T13:45:58.756Z,26.17
2022-07-29T13:48:25.370Z,25.47
2022-07-29T13:50:51.966Z,26.25
2022-07-29T13:53:18.550Z,25.79
2022-07-29T13:55:45.300Z,26.26
2022-07-29T13:58:11.956Z,26.19
2022-07-29T14:00:38.582Z,25.86
2022-07-29T14:03:05.536Z,24.92
2022-07-29T14:05:32.052Z,24.55
2022-07-29T14:07:58.618Z,24.05
2022-07-29T14:10:25.464Z,23.40
2022-07-29T14:12:52.028Z,23.17
2022-07-29T14:15:18.727Z,23.47
2022-07-29T14:17:45.249Z,23.93
2022-07-29T14:20:11.880Z,24.28
2022-07-29T14:22:42.389Z,24.60
2022-07-29T14:25:10.691Z,25.00
2022-07-29T14:27:42.735Z,25.55
2022-07-29T14:30:10.196Z,26.06
2022-07-29T14:32:36.950Z,25.96
2022-07-29T14:35:05.216Z,26.71
2022-07-29T14:37:39.364Z,26.98
2022-07-29T14:40:08.768Z,28.25
2022-07-29T14:42:35.439Z,28.08
2022-07-29T14:45:02.047Z,27.39
2022-07-29T14:47:28.633Z,28.59
2022-07-29T14:49:55.583Z,29.31
2022-07-29T14:52:22.092Z,28.07
2022-07-29T14:54:48.685Z,27.66
2022-07-29T14:57:15.215Z,28.85
2022-07-29T14:59:41.823Z,28.85
2022-07-29T15:02:08.422Z,29.10
2022-07-29T15:04:35.485Z,29.45
2022-07-29T15:07:02.818Z,29.73
2022-07-29T15:09:29.328Z,29.40
2022-07-29T15:11:56.318Z,29.52
2022-07-29T15:14:23.292Z,29.83
2022-07-29T15:16:49.822Z,28.84
2022-07-29T15:19:19.247Z,28.47
2022-07-29T15:21:48.230Z,28.17
2022-07-29T15:24:17.506Z,28.98
2022-07-29T15:26:44.528Z,28.97
2022-07-29T15:29:11.281Z,29.24
2022-07-29T15:31:37.809Z,28.79
2022-07-29T15:34:05.973Z,29.60
2022-07-29T15:36:51.443Z,29.72
2022-07-29T15:39:19.720Z,29.77
2022-07-29T15:41:46.484Z,28.92
2022-07-29T15:44:13.054Z,28.85
2022-07-29T15:46:59.317Z,28.94
2022-07-29T15:49:48.725Z,29.51
2022-07-29T15:52:25.283Z,29.09
2022-07-29T15:54:56.917Z,28.52
2022-07-29T15:57:24.602Z,29.05
2022-07-29T15:59:51.869Z,29.04
2022-07-29T16:02:18.916Z,29.21
2022-07-29T16:04:45.423Z,28.76
2022-07-29T16:07:12.344Z,28.77
2022-07-29T16:09:41.047Z,28.74
2022-07-29T16:12:14.964Z,29.21
2022-07-29T16:14:43.438Z,28.72
2022-07-29T16:17:14.382Z,28.87
2022-07-29T16:19:45.313Z,28.63
2022-07-29T16:22:12.372Z,28.85
2022-07-29T16:24:39.153Z,29.28
2022-07-29T16:27:05.812Z,29.00
2022-07-29T16:29:32.363Z,28.68
2022-07-29T16:31:58.921Z,28.45
2022-07-29T16:34:25.698Z,28.81
2022-07-29T16:36:52.245Z,28.46
2022-07-29T16:39:18.766Z,29.04
2022-07-29T16:41:45.380Z,29.29
2022-07-29T16:44:11.973Z,29.62
2022-07-29T16:46:41.400Z,29.73
2022-07-29T16:49:08.237Z,29.91
2022-07-29T16:51:34.955Z,29.81
2022-07-29T16:54:01.496Z,29.89
2022-07-29T16:56:27.977Z,29.77
2022-07-29T16:58:54.524Z,29.18
2022-07-29T17:01:21.117Z,28.86
2022-07-29T17:04:06.286Z,28.90
2022-07-29T17:06:38.372Z,29.04
2022-07-29T17:09:06.894Z,29.20
2022-07-29T17:11:53.304Z,29.12
2022-07-29T17:14:24.122Z,28.96
2022-07-29T17:17:00.653Z,28.63
2022-07-29T17:19:33.831Z,28.12
2022-07-29T17:22:09.464Z,28.80
2022-07-29T17:24:38.974Z,28.99
2022-07-29T17:27:08.496Z,29.12
2022-07-29T17:29:35.220Z,28.67
2022-07-29T17:32:01.831Z,28.97
2022-07-29T17:34:28.344Z,28.50
2022-07-29T17:36:55.013Z,28.88
2022-07-29T17:39:21.757Z,28.72
2022-07-29T17:41:48.382Z,28.89
2022-07-29T17:44:15.081Z,28.73
2022-07-29T17:46:41.608Z,28.72
2022-07-29T17:49:08.299Z,28.59
2022-07-29T17:51:34.871Z,28.55
2022-07-29T17:54:01.621Z,28.37
2022-07-29T17:56:28.154Z,28.61
2022-07-29T17:58:57.271Z,28.48
2022-07-29T18:01:24.145Z,28.04
2022-07-29T18:03:50.834Z,28.22
2022-07-29T18:06:17.367Z,28.04
2022-07-29T18:08:47.430Z,28.17
2022-07-29T18:11:15.307Z,27.90
2022-07-29T18:13:41.947Z,27.95
2022-07-29T18:16:11.896Z,27.94
2022-07-29T18:18:38.519Z,27.80
2022-07-29T18:21:05.416Z,27.84
2022-07-29T18:23:32.103Z,27.93
2022-07-29T18:25:58.738Z,27.78
2022-07-29T18:28:25.352Z,27.19
2022-07-29T18:30:52.827Z,27.03
2022-07-29T18:33:22.388Z,26.93
2022-07-29T18:35:50.680Z,26.88
2022-07-29T18:38:17.363Z,27.13
2022-07-29T18:40:45.546Z,27.18
2022-07-29T18:43:12.659Z,27.24
2022-07-29T18:45:39.599Z,26.70
2022-07-29T18:48:08.405Z,26.78
2022-07-29T18:50:39.600Z,26.99
2022-07-29T18:53:06.175Z,26.92
2022-07-29T18:55:32.809Z,26.69
2022-07-29T18:57:59.462Z,26.75
2022-07-29T19:00:26.747Z,26.52
2022-07-29T19:02:53.858Z,26.12
2022-07-29T19:05:21.071Z,26.09
2022-07-29T19:07:47.553Z,26.70
2022-07-29T19:10:14.399Z,26.69
2022-07-29T19:12:41.014Z,26.81
2022-07-29T19:15:08.368Z,26.93
2022-07-29T19:17:34.950Z,26.95
2022-07-29T19:20:02.172Z,26.36
2022-07-29T19:22:28.703Z,26.32
2022-07-29T19:24:55.250Z,26.34
2022-07-29T19:27:21.782Z,26.32
2022-07-29T19:29:48.416Z,26.26
2022-07-29T19:32:24.894Z,26.09
2022-07-29T19:35:11.251Z,26.17
2022-07-29T19:37:37.810Z,26.14
2022-07-29T19:40:05.627Z,26.08
2022-07-29T19:42:32.156Z,25.63
2022-07-29T19:44:58.792Z,25.91
2022-07-29T19:47:25.933Z,25.82
2022-07-29T19:49:52.543Z,25.53
2022-07-29T19:52:19.152Z,25.46
2022-07-29T19:54:45.702Z,25.50
2022-07-29T19:57:12.218Z,25.17
2022-07-29T19:59:39.041Z,25.05
2022-07-29T20:02:05.754Z,24.82
2022-07-29T20:04:32.393Z,24.71
2022-07-29T20:07:01.654Z,24.79
2022-07-29T20:09:28.776Z,24.52
2022-07-29T20:11:55.391Z,24.86
2022-07-29T20:14:22.478Z,24.51
2022-07-29T20:16:49.698Z,24.84
2022-07-29T20:19:16.988Z,24.46
2022-07-29T20:21:44.264Z,24.74
2022-07-29T20:24:11.115Z,24.38
2022-07-29T20:26:38.238Z,24.57
2022-07-29T20:29:05.359Z,24.64
2022-07-29T20:31:32.775Z,24.60
2022-07-29T20:34:00.638Z,24.58
2022-07-29T20:36:28.099Z,24.52
2022-07-29T20:38:55.746Z,24.60
2022-07-29T20:41:22.568Z,24.74
2022-07-29T20:43:52.713Z,24.83
2022-07-29T20:46:19.425Z,24.82
2022-07-29T20:48:47.043Z,24.66
2022-07-29T20:51:14.473Z,24.38
2022-07-29T20:53:41.561Z,24.22
2022-07-29T20:56:08.326Z,24.16
2022-07-29T20:58:36.233Z,24.28
2022-07-29T21:01:03.494Z,24.13
2022-07-29T21:03:30.110Z,24.14
2022-07-29T21:05:56.754Z,23.97
2022-07-29T21:08:23.350Z,23.71
2022-07-29T21:10:49.984Z,23.90
2022-07-29T21:13:17.056Z,23.56
2022-07-29T21:15:46.346Z,23.75
2022-07-29T21:18:32.425Z,23.61
2022-07-29T21:21:03.721Z,23.21
2022-07-29T21:23:30.906Z,23.32
2022-07-29T21:25:57.803Z,23.30
2022-07-29T21:28:27.288Z,23.46
2022-07-29T21:30:54.863Z,23.43
2022-07-29T21:33:21.863Z,23.11
2022-07-29T21:36:26.761Z,23.50
2022-07-29T21:38:35.861Z,23.36
2022-07-29T21:41:02.892Z,23.58
2022-07-29T21:43:29.544Z,23.56
2022-07-29T21:45:57.133Z,23.79
2022-07-29T21:48:25.329Z,23.67
2022-07-29T21:50:52.038Z,23.60
2022-07-29T21:53:21.985Z,23.84
2022-07-29T21:55:54.302Z,23.91
2022-07-29T21:58:23.004Z,23.64
2022-07-29T22:00:49.669Z,23.62
2022-07-29T22:03:16.680Z,23.23
2022-07-29T22:05:44.175Z,23.36
2022-07-29T22:08:10.846Z,23.53
2022-07-29T22:10:37.540Z,23.67
2022-07-29T22:13:04.664Z,23.64
2022-07-29T22:15:31.296Z,23.53
2022-07-29T22:17:57.959Z,23.20
2022-07-29T22:20:24.967Z,22.92
2022-07-29T22:22:51.621Z,23.55
2022-07-29T22:25:18.297Z,23.36
2022-07-29T22:27:45.198Z,23.21
2022-07-29T22:30:12.696Z,23.08
2022-07-29T22:32:39.531Z,23.06
2022-07-29T22:35:06.421Z,23.15
2022-07-29T22:37:33.377Z,23.08
2022-07-29T22:39:59.908Z,23.07
2022-07-29T22:42:26.526Z,23.24
2022-07-29T22:44:53.291Z,23.25
2022-07-29T22:47:38.793Z,23.61
2022-07-29T22:50:06.807Z,23.63
2022-07-29T22:52:33.355Z,23.71
2022-07-29T22:54:59.860Z,23.80
2022-07-29T22:57:26.433Z,23.64
2022-07-29T22:59:53.317Z,23.51
2022-07-29T23:02:19.864Z,23.31
2022-07-29T23:04:46.431Z,23.37
2022-07-29T23:07:12.981Z,23.05
2022-07-29T23:09:39.825Z,23.10
2022-07-29T23:12:06.919Z,23.24
2022-07-29T23:14:33.588Z,23.42
2022-07-29T23:17:00.568Z,23.43
2022-07-29T23:19:27.397Z,23.60
2022-07-29T23:21:54.048Z,23.40
2022-07-29T23:24:20.627Z,23.22
2022-07-29T23:26:47.155Z,23.31
2022-07-29T23:29:13.664Z,23.43
2022-07-29T23:31:47.766Z,23.49
2022-07-29T23:34:14.870Z,23.68
2022-07-29T23:36:42.325Z,23.53
2022-07-29T23:39:13.226Z,23.63
2022-07-29T23:41:40.027Z,23.44
2022-07-29T23:44:06.619Z,23.67
2022-07-29T23:46:33.352Z,23.46
2022-07-29T23:49:00.419Z,23.61
2022-07-29T23:51:29.101Z,23.37
2022-07-29T23:53:56.177Z,23.09
2022-07-29T23:56:23.241Z,23.17
2022-07-29T23:58:50.114Z,23.06
